Komatsu, Japan
Current Conditions -  °F | °C
As of 5:00 PM on Thursday 29 Jan 2015 (Local Time) from RJNK Reporting Station
Broken Clouds Broken Clouds  
Wind Chill: 30°   Ceiling: 15000
Heat Index: 37°   Visibility: 6mi
Dew Point: 25°   Wind: 10mph
Humidity: 60%   Direction: 50°NE
Pressure: 30.3"   Gusts: NA
Location:  36.41°N, 136.44°E
Report Text: RJNK 290800Z 05009KT 9999 FEW025 SCT120 BKN150 03/M04 Q1026
Loading
Personal Weather Stations






























Interactive Weather Map New forecast layout! Learn more

10-Day Weather Forecast

Advertisements
Track Severe Weather on mobile